Time;durP1;ratioP1;P1;durP2;ratioP2;P2;SDS_P1;SDS_P2;PMS_P1;PMS_P2;Temp;Humidity;BMP_temperature;BMP_pressure;BME280_temperature;BME280_humidity;BME280_pressure;Samples;Min_cycle;Max_cycle;Signal;HPM_P1;HPM_P2
2022/04/08 00:03:22;;;;;;;9.85;1.73;;;;;;;4.69;100.00;98538.25;10185660;28;20061;-63
2022/04/08 00:08:19;;;;;;;8.45;1.20;;;;;;;4.68;100.00;98548.28;10182721;28;20125;-62
2022/04/08 00:13:17;;;;;;;4.88;0.88;;;;;;;4.62;100.00;98555.06;10187738;28;20151;-62
2022/04/08 00:18:14;;;;;;;10.60;2.10;;;;;;;4.58;100.00;98559.53;10194892;28;20494;-62
2022/04/08 00:23:10;;;;;;;4.82;0.75;;;;;;;4.56;100.00;98573.38;10182613;28;20481;-63
2022/04/08 00:28:06;;;;;;;2.20;0.52;;;;;;;4.50;100.00;98595.56;10184226;28;20137;-63
2022/04/08 00:33:03;;;;;;;3.90;0.57;;;;;;;4.41;100.00;98614.56;10182269;28;20425;-62
2022/04/08 00:38:00;;;;;;;3.92;1.00;;;;;;;4.42;100.00;98627.75;10188320;28;20077;-63
2022/04/08 00:42:56;;;;;;;11.48;1.27;;;;;;;4.35;100.00;98646.44;10195175;28;20108;-62
2022/04/08 00:47:52;;;;;;;7.40;0.90;;;;;;;4.29;100.00;98661.25;10189429;28;20149;-62
2022/04/08 00:52:49;;;;;;;13.43;2.75;;;;;;;4.29;100.00;98677.47;10194041;28;20069;-62
2022/04/08 00:57:46;;;;;;;8.15;1.30;;;;;;;4.31;100.00;98691.47;10178291;28;20820;-62
2022/04/08 01:02:42;;;;;;;6.50;0.98;;;;;;;4.27;100.00;98706.78;10194133;28;20072;-61
2022/04/08 01:07:39;;;;;;;7.65;1.38;;;;;;;4.25;100.00;98725.25;10191092;28;20124;-61
2022/04/08 01:12:35;;;;;;;16.52;2.55;;;;;;;4.19;100.00;98737.38;10192523;28;20054;-61
2022/04/08 01:17:32;;;;;;;11.45;1.30;;;;;;;4.28;100.00;98748.16;10187964;28;20045;-62
2022/04/08 01:22:29;;;;;;;8.30;1.33;;;;;;;4.29;100.00;98774.09;10191954;28;20662;-62
2022/04/08 01:27:25;;;;;;;4.45;1.13;;;;;;;4.23;100.00;98770.78;10191925;28;20089;-62
2022/04/08 01:32:22;;;;;;;11.90;1.30;;;;;;;4.26;100.00;98774.75;10191960;28;20129;-62
2022/04/08 01:37:19;;;;;;;16.10;1.35;;;;;;;4.21;100.00;98795.44;10191441;28;20450;-62
2022/04/08 01:42:21;;;;;;;18.75;2.85;;;;;;;4.18;100.00;98806.13;10188447;28;20606;-62
2022/04/08 01:47:19;;;;;;;21.10;3.20;;;;;;;4.23;100.00;98805.94;10187587;28;20549;-62
2022/04/08 01:52:15;;;;;;;12.07;1.65;;;;;;;4.27;100.00;98839.34;10186571;28;20141;-62
2022/04/08 01:57:12;;;;;;;10.18;1.52;;;;;;;4.31;100.00;98843.00;10186051;28;20140;-62
2022/04/08 02:02:08;;;;;;;10.25;1.15;;;;;;;4.15;100.00;98852.72;10163514;28;20054;-62
2022/04/08 02:07:06;;;;;;;15.55;1.30;;;;;;;4.21;100.00;98854.16;10182160;28;20084;-62
2022/04/08 02:12:03;;;;;;;10.52;2.03;;;;;;;4.19;100.00;98856.38;10167994;28;20057;-63
2022/04/08 02:16:59;;;;;;;12.73;1.35;;;;;;;4.06;100.00;98862.75;10177275;28;20120;-62
2022/04/08 02:21:57;;;;;;;8.05;1.15;;;;;;;4.11;100.00;98870.72;10190957;28;20472;-63
2022/04/08 02:26:54;;;;;;;9.60;2.13;;;;;;;4.13;100.00;98880.13;10183360;28;20066;-62
2022/04/08 02:31:51;;;;;;;10.43;1.23;;;;;;;4.17;100.00;98885.66;10189711;28;20077;-62
2022/04/08 02:36:50;;;;;;;16.23;1.55;;;;;;;4.23;100.00;98927.69;10182774;28;20111;-63
2022/04/08 02:41:46;;;;;;;5.90;1.23;;;;;;;3.93;100.00;98924.81;10189998;28;20080;-63
2022/04/08 02:46:43;;;;;;;6.38;0.88;;;;;;;3.94;100.00;98931.78;10184038;28;20458;-62
2022/04/08 02:51:40;;;;;;;10.02;1.73;;;;;;;3.96;100.00;98951.19;10187088;28;20112;-62
2022/04/08 02:56:39;;;;;;;17.05;2.20;;;;;;;3.98;100.00;98954.38;10180487;28;20145;-63
2022/04/08 03:01:36;;;;;;;16.00;1.90;;;;;;;3.90;100.00;98971.41;10159368;28;20045;-63
2022/04/08 03:06:33;;;;;;;7.95;1.20;;;;;;;3.89;100.00;98977.91;10181180;28;20057;-63
2022/04/08 03:11:30;;;;;;;7.72;1.67;;;;;;;3.84;100.00;98997.00;10189411;28;20045;-63
2022/04/08 03:16:26;;;;;;;11.98;1.67;;;;;;;3.73;100.00;98995.69;10184861;28;20050;-63
2022/04/08 03:21:23;;;;;;;9.70;1.25;;;;;;;3.73;100.00;98991.06;10188749;28;20045;-61
2022/04/08 03:26:20;;;;;;;8.50;1.90;;;;;;;3.76;100.00;98989.66;10183025;28;20093;-62
2022/04/08 03:31:16;;;;;;;18.63;1.73;;;;;;;3.76;100.00;98976.13;10188167;28;20128;-61
2022/04/08 03:36:13;;;;;;;13.73;1.83;;;;;;;3.84;100.00;98997.00;10184025;28;20139;-61
2022/04/08 03:41:09;;;;;;;10.02;1.73;;;;;;;3.84;100.00;99007.03;10184076;28;20070;-61
2022/04/08 03:46:06;;;;;;;17.67;1.67;;;;;;;3.86;100.00;99016.41;10183057;28;20038;-61
2022/04/08 03:51:02;;;;;;;15.77;2.30;;;;;;;3.88;100.00;99008.78;10192545;28;20406;-62
2022/04/08 03:56:01;;;;;;;16.40;2.05;;;;;;;3.83;100.00;99024.34;10192534;28;20125;-62
2022/04/08 04:00:58;;;;;;;12.88;1.80;;;;;;;3.83;100.00;99027.88;10177149;28;20061;-62
2022/04/08 04:05:54;;;;;;;12.95;1.52;;;;;;;3.81;100.00;99019.28;10193852;28;20104;-61
2022/04/08 04:10:51;;;;;;;15.38;3.05;;;;;;;3.88;100.00;99041.22;10191237;28;20041;-61
2022/04/08 04:15:47;;;;;;;12.48;1.80;;;;;;;3.86;100.00;99054.25;10180073;28;20517;-62
2022/04/08 04:20:44;;;;;;;13.38;2.28;;;;;;;3.86;100.00;99065.06;10170968;28;20046;-62
2022/04/08 04:25:40;;;;;;;10.57;1.50;;;;;;;3.79;100.00;99081.75;10170734;28;20134;-62
2022/04/08 04:30:37;;;;;;;12.35;1.88;;;;;;;3.65;100.00;99091.09;10168810;28;20062;-63
2022/04/08 04:35:35;;;;;;;12.73;1.30;;;;;;;3.71;100.00;99106.03;10179946;28;20042;-62
2022/04/08 04:40:32;;;;;;;11.45;1.60;;;;;;;3.62;100.00;99124.13;10193296;28;20410;-62
2022/04/08 04:45:28;;;;;;;9.25;1.27;;;;;;;3.51;100.00;99140.59;10192947;28;20111;-62
2022/04/08 04:50:25;;;;;;;19.88;2.03;;;;;;;3.37;100.00;99145.28;10186568;28;20050;-62
2022/04/08 04:55:25;;;;;;;10.13;1.30;;;;;;;3.37;100.00;99145.28;10182869;28;20556;-62
2022/04/08 05:00:22;;;;;;;12.85;1.50;;;;;;;3.28;100.00;99152.53;10181137;28;20470;-63
2022/04/08 05:05:18;;;;;;;17.38;1.65;;;;;;;3.29;100.00;99154.13;10157310;28;20133;-64
2022/04/08 05:10:15;;;;;;;16.30;1.92;;;;;;;3.32;100.00;99173.22;10155277;28;20046;-64
2022/04/08 05:15:12;;;;;;;11.75;3.88;;;;;;;3.25;100.00;99169.34;10164928;28;20080;-64
2022/04/08 05:20:09;;;;;;;12.98;2.15;;;;;;;3.29;100.00;99186.53;10164167;28;20042;-64
2022/04/08 05:25:06;;;;;;;14.50;2.10;;;;;;;3.31;100.00;99184.34;10162881;28;20050;-64
2022/04/08 05:30:08;;;;;;;14.40;2.08;;;;;;;3.27;100.00;99186.03;10150730;28;20505;-65
2022/04/08 05:35:05;;;;;;;14.70;1.77;;;;;;;3.37;100.00;99199.34;10159411;28;20054;-64
2022/04/08 05:40:02;;;;;;;8.23;1.35;;;;;;;3.25;100.00;99212.56;10165814;28;20049;-66
2022/04/08 05:44:59;;;;;;;13.48;1.77;;;;;;;3.27;100.00;99226.56;10184676;28;20056;-65
2022/04/08 05:49:59;;;;;;;12.10;1.58;;;;;;;3.31;100.00;99233.75;10160176;28;20049;-64
2022/04/08 05:54:56;;;;;;;18.38;2.45;;;;;;;3.31;100.00;99233.75;10158069;28;20144;-62
2022/04/08 05:59:58;;;;;;;19.73;1.75;;;;;;;3.40;100.00;99241.94;10153335;28;20046;-62
2022/04/08 06:04:55;;;;;;;11.70;1.90;;;;;;;3.36;100.00;99251.75;10154824;28;20053;-62
2022/04/08 06:09:52;;;;;;;9.00;1.50;;;;;;;3.31;100.00;99255.38;10143970;28;20533;-62
2022/04/08 06:14:49;;;;;;;13.55;1.80;;;;;;;3.27;100.00;99264.38;10159493;28;20129;-62
2022/04/08 06:19:48;;;;;;;12.68;1.55;;;;;;;3.30;100.00;99263.78;10165120;28;20038;-62
2022/04/08 06:24:45;;;;;;;11.88;2.05;;;;;;;3.36;100.00;99268.78;10160141;28;20057;-62
2022/04/08 06:29:41;;;;;;;16.70;3.65;;;;;;;3.54;100.00;99269.69;10178322;28;20041;-62
2022/04/08 06:34:38;;;;;;;12.32;1.58;;;;;;;3.53;100.00;99297.84;10179298;28;20541;-63
2022/04/08 06:39:34;;;;;;;8.55;1.20;;;;;;;3.66;100.00;99282.66;10178447;28;20128;-65
2022/04/08 06:44:31;;;;;;;10.45;1.50;;;;;;;3.68;100.00;99285.06;10158605;28;20494;-65
2022/04/08 06:49:28;;;;;;;10.25;2.08;;;;;;;3.71;100.00;99284.44;10156449;28;20544;-65
2022/04/08 06:54:25;;;;;;;15.90;1.83;;;;;;;3.83;100.00;99271.19;10159549;28;20429;-65
2022/04/08 06:59:22;;;;;;;14.23;1.63;;;;;;;3.80;100.00;99290.72;10159329;28;20042;-65
2022/04/08 07:04:18;;;;;;;8.40;1.90;;;;;;;3.82;100.00;99296.63;10154946;28;20797;-65
2022/04/08 07:09:15;;;;;;;6.57;0.95;;;;;;;3.84;100.00;99305.22;10151607;28;20104;-63
2022/04/08 07:14:11;;;;;;;9.23;1.25;;;;;;;3.95;100.00;99303.88;10164109;28;20045;-63
2022/04/08 07:19:10;;;;;;;6.75;1.25;;;;;;;3.99;100.00;99306.75;10163075;28;20188;-63
2022/04/08 07:24:07;;;;;;;11.25;1.77;;;;;;;4.14;100.00;99308.28;10170383;28;20870;-63
2022/04/08 07:29:03;;;;;;;5.28;0.73;;;;;;;4.21;100.00;99331.09;10167755;28;20046;-63
2022/04/08 07:34:00;;;;;;;8.45;1.00;;;;;;;4.24;100.00;99313.44;10160804;28;20045;-63
2022/04/08 07:38:56;;;;;;;4.70;0.85;;;;;;;4.11;100.00;99330.56;10158124;28;20088;-63
2022/04/08 07:43:53;;;;;;;6.55;0.85;;;;;;;4.31;100.00;99330.03;10169222;28;20042;-63
2022/04/08 07:48:50;;;;;;;3.17;0.50;;;;;;;4.08;100.00;99366.31;10170842;28;21652;-63
2022/04/08 07:53:46;;;;;;;2.50;0.43;;;;;;;4.11;100.00;99358.41;10166871;28;20113;-62
2022/04/08 07:58:45;;;;;;;6.22;0.70;;;;;;;4.14;100.00;99340.75;10183037;28;20038;-62
2022/04/08 08:03:45;;;;;;;2.20;0.38;;;;;;;4.37;100.00;99345.03;10183074;28;20129;-62
2022/04/08 08:08:41;;;;;;;3.38;0.77;;;;;;;4.42;100.00;99347.59;10158156;28;20478;-62
2022/04/08 08:13:38;;;;;;;4.25;0.68;;;;;;;4.58;100.00;99371.56;10179247;28;20058;-62
2022/04/08 08:18:35;;;;;;;7.20;1.05;;;;;;;4.58;100.00;99371.56;10170421;28;20046;-63
2022/04/08 08:23:32;;;;;;;6.78;1.38;;;;;;;4.48;100.00;99377.22;10152529;28;20486;-63
2022/04/08 08:28:29;;;;;;;10.90;1.88;;;;;;;4.75;100.00;99377.06;10163781;28;20549;-64
2022/04/08 08:33:26;;;;;;;6.85;1.17;;;;;;;4.89;100.00;99370.75;10159415;28;20046;-63
2022/04/08 08:38:22;;;;;;;6.50;1.10;;;;;;;4.94;100.00;99378.72;10164571;28;20058;-63
2022/04/08 08:43:19;;;;;;;8.30;1.02;;;;;;;5.04;100.00;99381.19;10160491;28;20038;-66
2022/04/08 08:48:16;;;;;;;6.38;1.10;;;;;;;5.07;100.00;99399.50;10163577;28;20337;-66
2022/04/08 08:53:17;;;;;;;8.65;1.10;;;;;;;5.20;100.00;99386.97;10165729;28;20062;-67
2022/04/08 08:58:14;;;;;;;5.78;0.73;;;;;;;5.38;100.00;99414.91;10165428;28;20108;-67
2022/04/08 09:03:11;;;;;;;9.02;1.60;;;;;;;5.56;100.00;99389.44;10159384;28;20129;-68
2022/04/08 09:08:11;;;;;;;8.82;1.20;;;;;;;5.56;100.00;99375.88;10158353;28;20072;-66
2022/04/08 09:13:08;;;;;;;6.47;1.10;;;;;;;5.62;100.00;99377.31;10157586;28;20053;-66
2022/04/08 09:18:14;;;;;;;6.90;0.98;;;;;;;5.68;100.00;99381.47;10171766;28;20048;-64
2022/04/08 09:23:13;;;;;;;8.93;1.08;;;;;;;5.66;100.00;99383.72;10189084;28;20082;-65
2022/04/08 09:28:18;;;;;;;6.38;1.10;;;;;;;5.71;100.00;99380.06;10187192;28;20521;-65
2022/04/08 09:33:16;;;;;;;4.75;0.90;;;;;;;5.72;100.00;99397.13;10162857;28;20051;-61
2022/04/08 09:38:25;;;;;;;5.07;1.17;;;;;;;6.14;100.00;99373.84;10170365;28;20069;-61
2022/04/08 09:43:30;;;;;;;3.97;0.80;;;;;;;6.38;100.00;99381.47;10172414;28;20045;-64
2022/04/08 09:48:27;;;;;;;3.22;0.90;;;;;;;6.36;100.00;99372.88;10163852;28;20054;-64
2022/04/08 09:53:26;;;;;;;4.20;0.82;;;;;;;6.45;100.00;99359.25;10160445;28;20912;-64
2022/04/08 09:58:26;;;;;;;11.52;2.33;;;;;;;6.83;100.00;99367.47;10166576;28;20775;-65
2022/04/08 10:03:23;;;;;;;5.13;1.25;;;;;;;6.95;100.00;99355.91;10185677;28;20053;-64
2022/04/08 10:08:20;;;;;;;6.82;0.95;;;;;;;7.13;100.00;99356.63;10159727;28;20076;-65
2022/04/08 10:13:35;;;;;;;5.80;0.80;;;;;;;7.56;100.00;99352.84;10168030;28;20062;-65
2022/04/08 10:18:40;;;;;;;3.40;0.70;;;;;;;8.11;100.00;99350.97;10151631;28;20706;-65
2022/04/08 10:23:40;;;;;;;4.03;0.90;;;;;;;8.63;100.00;99350.44;10165025;28;20478;-66
2022/04/08 10:28:37;;;;;;;2.38;0.47;;;;;;;9.38;100.00;99331.03;10172731;28;20568;-65
2022/04/08 10:33:48;;;;;;;3.08;0.60;;;;;;;10.34;90.24;99343.16;10157602;28;20426;-65
2022/04/08 10:38:45;;;;;;;5.22;0.90;;;;;;;8.58;91.49;99367.00;10163983;28;20085;-65
2022/04/08 10:43:47;;;;;;;5.38;0.70;;;;;;;9.39;90.29;99338.06;10164211;28;20413;-66
2022/04/08 10:48:54;;;;;;;5.20;0.75;;;;;;;10.31;75.15;99328.25;10156536;28;20415;-66
2022/04/08 10:54:04;;;;;;;4.10;1.13;;;;;;;10.74;63.75;99340.31;10157630;28;20061;-65
2022/04/08 10:59:01;;;;;;;5.82;0.93;;;;;;;10.72;54.76;99320.72;10152285;28;20057;-65
2022/04/08 11:04:00;;;;;;;4.40;0.70;;;;;;;10.72;56.83;99330.84;10150322;28;20752;-65
2022/04/08 11:09:12;;;;;;;4.93;1.23;;;;;;;11.36;58.56;99339.78;10153321;28;20049;-65
2022/04/08 11:14:09;;;;;;;6.13;0.98;;;;;;;11.78;56.33;99328.19;10141026;28;20069;-64
2022/04/08 11:19:10;;;;;;;6.82;1.20;;;;;;;11.43;58.29;99337.22;10167671;28;20053;-65
2022/04/08 11:24:13;;;;;;;4.80;0.82;;;;;;;10.86;56.36;99330.41;10162862;28;20056;-61
2022/04/08 11:29:17;;;;;;;4.95;0.77;;;;;;;11.30;56.21;99316.56;10157247;28;20052;-62
2022/04/08 11:34:15;;;;;;;4.38;0.60;;;;;;;11.79;53.25;99327.81;10171568;28;20045;-62
2022/04/08 11:39:22;;;;;;;5.28;1.05;;;;;;;10.96;47.49;99329.88;10170085;28;20034;-61
2022/04/08 11:44:19;;;;;;;5.97;0.73;;;;;;;10.84;51.56;99305.38;10168569;28;20049;-65
2022/04/08 11:49:17;;;;;;;7.93;0.70;;;;;;;11.67;49.52;99295.09;10176891;28;20548;-62
2022/04/08 11:54:13;;;;;;;3.60;0.98;;;;;;;11.88;43.85;99307.66;10178448;28;20524;-62
2022/04/08 11:59:11;;;;;;;3.20;0.57;;;;;;;12.36;43.57;99306.25;10173662;28;20060;-61
2022/04/08 12:04:11;;;;;;;5.00;0.65;;;;;;;12.88;43.29;99292.22;10149163;28;20150;-61
2022/04/08 12:09:13;;;;;;;4.78;0.68;;;;;;;11.65;43.57;99300.16;10158028;28;20057;-61
2022/04/08 12:14:10;;;;;;;4.05;0.52;;;;;;;10.95;48.47;99296.28;10154906;28;20046;-62
2022/04/08 12:19:09;;;;;;;4.28;0.60;;;;;;;10.21;52.95;99282.31;10151266;28;20721;-62
2022/04/08 12:24:27;;;;;;;3.92;0.60;;;;;;;9.50;59.73;99293.97;10142315;28;20072;-61
2022/04/08 12:29:28;;;;;;;4.13;0.55;;;;;;;8.91;70.02;99307.00;10162834;28;20053;-62
2022/04/08 12:34:24;;;;;;;6.25;1.20;;;;;;;8.34;88.15;99349.44;10163690;28;20061;-62
2022/04/08 12:39:21;;;;;;;3.78;0.90;;;;;;;6.37;100.00;99417.91;10185520;28;20112;-62
2022/04/08 12:44:17;;;;;;;1.60;0.65;;;;;;;5.31;100.00;99398.31;10177075;28;20069;-62
2022/04/08 12:49:14;;;;;;;3.47;0.85;;;;;;;6.82;100.00;99337.88;10186480;28;20042;-66
2022/04/08 12:54:11;;;;;;;3.20;0.60;;;;;;;8.78;100.00;99311.63;10182385;28;20133;-66
2022/04/08 12:59:08;;;;;;;3.38;0.50;;;;;;;9.73;100.00;99303.22;10159468;28;20135;-65
2022/04/08 13:04:05;;;;;;;4.95;0.60;;;;;;;10.46;100.00;99302.09;10160029;28;20199;-65
2022/04/08 13:09:02;;;;;;;3.53;0.73;;;;;;;10.94;100.00;99288.41;10151128;28;20046;-65
2022/04/08 13:13:58;;;;;;;6.47;0.73;;;;;;;11.82;100.00;99281.72;10149478;28;20046;-67
2022/04/08 13:18:55;;;;;;;5.40;0.70;;;;;;;12.23;100.00;99274.69;10147246;28;20125;-64
2022/04/08 13:23:53;;;;;;;4.22;0.70;;;;;;;11.86;96.21;99266.94;10146963;28;20080;-65
2022/04/08 13:28:49;;;;;;;4.82;0.80;;;;;;;12.19;97.91;99257.41;10175040;28;20141;-65
2022/04/08 13:33:46;;;;;;;5.55;0.57;;;;;;;11.40;92.15;99255.84;10185336;28;20064;-65
2022/04/08 13:38:42;;;;;;;4.32;0.70;;;;;;;10.01;92.71;99269.66;10190196;28;20046;-65
2022/04/08 13:43:39;;;;;;;3.80;0.55;;;;;;;11.07;89.38;99251.63;10190658;28;20057;-65
2022/04/08 13:48:35;;;;;;;8.02;1.10;;;;;;;11.81;89.18;99242.56;10202020;28;20123;-65
2022/04/08 13:53:32;;;;;;;5.43;0.82;;;;;;;12.39;82.78;99245.22;10192028;28;20192;-65
2022/04/08 13:58:28;;;;;;;5.95;0.73;;;;;;;11.02;64.10;99251.06;10197523;28;20038;-65
2022/04/08 14:03:25;;;;;;;5.47;0.45;;;;;;;11.11;61.23;99259.88;10223339;28;20505;-65
2022/04/08 14:08:22;;;;;;;3.70;0.60;;;;;;;11.27;57.62;99240.69;10220534;28;20061;-65
2022/04/08 14:13:18;;;;;;;5.43;0.82;;;;;;;11.82;61.38;99246.91;10225363;28;20145;-65
2022/04/08 14:18:15;;;;;;;4.32;0.88;;;;;;;11.21;54.50;99236.63;10210049;28;20052;-65
2022/04/08 14:23:11;;;;;;;3.78;0.50;;;;;;;10.64;53.08;99258.81;10224475;28;20049;-65
2022/04/08 14:28:07;;;;;;;3.53;0.60;;;;;;;10.82;51.13;99258.44;10220472;28;20061;-65
2022/04/08 14:33:04;;;;;;;3.50;0.60;;;;;;;11.16;50.75;99246.75;10224313;28;20084;-65
2022/04/08 14:38:01;;;;;;;5.03;1.13;;;;;;;11.04;51.46;99265.97;10216000;28;20565;-65
2022/04/08 14:42:59;;;;;;;6.68;0.68;;;;;;;11.50;53.29;99259.94;10201403;28;20081;-65
2022/04/08 14:47:55;;;;;;;7.63;1.60;;;;;;;11.69;56.43;99254.47;10171706;28;20081;-65
2022/04/08 14:52:52;;;;;;;4.43;0.82;;;;;;;11.41;57.29;99257.41;10182344;28;20137;-65
2022/04/08 14:57:49;;;;;;;3.50;0.88;;;;;;;11.26;60.84;99258.28;10183015;28;20053;-65
2022/04/08 15:02:45;;;;;;;5.38;1.05;;;;;;;11.04;57.63;99255.03;10179433;28;20053;-65
2022/04/08 15:07:42;;;;;;;5.45;1.00;;;;;;;11.01;57.99;99277.66;10175588;28;20058;-65
2022/04/08 15:12:39;;;;;;;4.68;0.98;;;;;;;10.27;60.82;99261.75;10174323;28;20081;-65
2022/04/08 15:17:36;;;;;;;9.88;1.20;;;;;;;10.49;60.42;99278.75;10181434;28;20057;-65
2022/04/08 15:22:33;;;;;;;5.72;1.25;;;;;;;10.07;63.48;99280.00;10178664;28;20076;-65
2022/04/08 15:27:34;;;;;;;6.03;0.70;;;;;;;10.03;65.12;99300.16;10176403;28;20740;-65
2022/04/08 15:32:31;;;;;;;2.33;0.57;;;;;;;10.09;60.40;99283.16;10181045;28;20050;-65
2022/04/08 15:37:27;;;;;;;7.10;0.85;;;;;;;10.48;58.68;99288.06;10180464;28;20053;-65
2022/04/08 15:42:29;;;;;;;3.53;0.70;;;;;;;10.81;52.54;99278.72;10181163;28;20529;-65
2022/04/08 15:47:28;;;;;;;4.68;0.50;;;;;;;10.31;45.44;99306.41;10187607;28;20050;-67
2022/04/08 15:52:24;;;;;;;1.90;0.50;;;;;;;10.13;43.22;99294.16;10189697;28;20888;-64
2022/04/08 15:57:21;;;;;;;4.75;1.15;;;;;;;9.96;45.14;99316.34;10188312;28;20045;-66
2022/04/08 16:02:17;;;;;;;3.13;0.50;;;;;;;9.94;45.25;99338.53;10178450;28;20112;-65
2022/04/08 16:07:14;;;;;;;3.00;0.88;;;;;;;10.22;46.74;99324.06;10182781;28;20046;-65
2022/04/08 16:12:10;;;;;;;6.68;0.75;;;;;;;10.39;47.19;99317.50;10184685;28;20073;-64
2022/04/08 16:17:07;;;;;;;6.15;1.40;;;;;;;11.06;46.87;99318.38;10189105;28;20064;-64
2022/04/08 16:22:05;;;;;;;3.85;0.70;;;;;;;10.85;44.30;99331.56;10181597;28;20087;-65
2022/04/08 16:27:02;;;;;;;3.28;0.60;;;;;;;10.11;48.38;99334.69;10188183;28;20084;-64
2022/04/08 16:31:58;;;;;;;5.57;0.77;;;;;;;9.98;48.81;99330.41;10164656;28;20101;-64
2022/04/08 16:36:55;;;;;;;4.07;1.40;;;;;;;9.40;53.41;99350.59;10179858;28;20045;-65
2022/04/08 16:41:52;;;;;;;7.45;1.33;;;;;;;9.22;54.98;99343.78;10183984;28;20080;-63
2022/04/08 16:46:48;;;;;;;9.05;1.10;;;;;;;8.94;59.11;99362.78;10180865;28;20478;-64
2022/04/08 16:51:45;;;;;;;8.10;0.88;;;;;;;8.70;58.34;99371.69;10188137;28;20121;-64
2022/04/08 16:56:43;;;;;;;10.43;0.98;;;;;;;8.68;66.41;99366.59;10184492;28;20136;-67
2022/04/08 17:01:40;;;;;;;8.05;1.27;;;;;;;8.63;73.78;99356.72;10187405;28;20108;-66
2022/04/08 17:06:37;;;;;;;7.65;0.85;;;;;;;8.42;80.57;99356.78;10179341;28;20123;-66
2022/04/08 17:11:33;;;;;;;6.65;1.13;;;;;;;8.20;82.26;99365.28;10188764;28;20572;-67
2022/04/08 17:16:30;;;;;;;9.18;1.60;;;;;;;8.40;83.95;99359.03;10175904;28;20080;-66
2022/04/08 17:21:27;;;;;;;6.15;1.23;;;;;;;8.19;86.49;99356.34;10187759;28;20751;-66
2022/04/08 17:26:23;;;;;;;13.63;1.70;;;;;;;7.90;89.56;99356.44;10168109;28;20489;-66
2022/04/08 17:31:20;;;;;;;8.43;2.05;;;;;;;7.81;93.13;99359.22;10174878;28;20451;-67
2022/04/08 17:36:17;;;;;;;8.75;1.52;;;;;;;7.67;97.02;99385.88;10165899;28;20057;-66
2022/04/08 17:41:13;;;;;;;9.15;1.80;;;;;;;7.49;100.00;99368.88;10184252;28;20073;-67
2022/04/08 17:46:10;;;;;;;11.55;2.00;;;;;;;7.04;100.00;99369.47;10185476;28;20104;-65
2022/04/08 17:51:07;;;;;;;7.55;0.95;;;;;;;7.17;100.00;99371.13;10175957;28;20139;-66
2022/04/08 17:56:06;;;;;;;7.57;1.52;;;;;;;7.07;100.00;99375.03;10182279;28;20046;-66
2022/04/08 18:01:02;;;;;;;8.35;1.10;;;;;;;7.09;100.00;99374.69;10186050;28;20073;-66
2022/04/08 18:06:01;;;;;;;5.35;0.95;;;;;;;6.90;100.00;99375.91;10174554;28;20495;-66
2022/04/08 18:11:01;;;;;;;10.93;1.40;;;;;;;6.88;100.00;99378.16;10185561;28;20430;-67
2022/04/08 18:15:58;;;;;;;10.10;1.10;;;;;;;6.67;100.00;99382.69;10177309;28;20387;-66
2022/04/08 18:20:54;;;;;;;11.88;1.88;;;;;;;6.74;100.00;99383.00;10177765;28;20134;-66
2022/04/08 18:25:51;;;;;;;9.05;1.75;;;;;;;6.56;100.00;99397.75;10183488;28;20077;-66
2022/04/08 18:30:49;;;;;;;7.25;1.20;;;;;;;6.41;100.00;99402.56;10182104;28;20049;-66
2022/04/08 18:35:45;;;;;;;7.00;1.10;;;;;;;6.42;100.00;99404.16;10158623;28;20125;-67
2022/04/08 18:40:42;;;;;;;8.30;1.30;;;;;;;6.45;100.00;99398.09;10182829;28;20049;-66
2022/04/08 18:45:39;;;;;;;9.98;1.58;;;;;;;6.44;100.00;99401.91;10183365;28;20073;-66
2022/04/08 18:50:35;;;;;;;8.90;1.80;;;;;;;6.52;100.00;99403.81;10180807;28;20108;-66
2022/04/08 18:55:33;;;;;;;10.55;1.60;;;;;;;6.40;100.00;99400.16;10177412;28;20051;-67
2022/04/08 19:00:29;;;;;;;14.10;1.65;;;;;;;6.43;100.00;99403.03;10180043;28;20069;-66
2022/04/08 19:05:26;;;;;;;10.65;1.77;;;;;;;6.46;100.00;99413.25;10181901;28;20096;-67
2022/04/08 19:10:22;;;;;;;10.15;1.50;;;;;;;6.36;100.00;99410.06;10173378;28;20062;-67
2022/04/08 19:15:19;;;;;;;10.38;1.83;;;;;;;6.41;100.00;99412.63;10169773;28;20493;-67
2022/04/08 19:20:15;;;;;;;9.40;1.95;;;;;;;6.31;100.00;99414.56;10174323;28;20050;-67
2022/04/08 19:25:12;;;;;;;13.65;2.00;;;;;;;6.27;100.00;99410.09;10182917;28;20097;-66
2022/04/08 19:30:09;;;;;;;14.25;2.85;;;;;;;6.23;100.00;99406.41;10181988;28;20116;-66
2022/04/08 19:35:08;;;;;;;12.70;1.80;;;;;;;6.18;100.00;99410.09;10177620;28;20069;-66
2022/04/08 19:40:05;;;;;;;13.45;1.92;;;;;;;6.23;100.00;99411.84;10182283;28;20057;-66
2022/04/08 19:45:05;;;;;;;14.80;1.92;;;;;;;6.21;100.00;99430.38;10183050;28;20125;-66
2022/04/08 19:50:07;;;;;;;8.40;1.30;;;;;;;5.72;100.00;99445.94;10182178;28;20033;-66
2022/04/08 19:55:04;;;;;;;11.65;1.60;;;;;;;5.55;100.00;99409.53;10165518;28;20070;-66
2022/04/08 20:00:03;;;;;;;14.40;1.75;;;;;;;5.62;100.00;99420.72;10183334;28;20663;-66
2022/04/08 20:04:59;;;;;;;11.68;2.15;;;;;;;5.54;100.00;99407.13;10167477;28;20050;-66
2022/04/08 20:09:56;;;;;;;12.45;2.75;;;;;;;5.59;100.00;99410.50;10176425;28;20081;-66
2022/04/08 20:14:53;;;;;;;11.90;1.70;;;;;;;5.66;100.00;99410.84;10180895;28;20128;-67
2022/04/08 20:19:49;;;;;;;9.25;1.92;;;;;;;5.59;100.00;99410.50;10170028;28;20073;-66
2022/04/08 20:24:45;;;;;;;13.48;2.08;;;;;;;5.49;100.00;99413.50;10179063;28;20506;-66
2022/04/08 20:29:42;;;;;;;11.48;1.90;;;;;;;5.59;100.00;99405.09;10150264;28;20077;-66
2022/04/08 20:34:38;;;;;;;13.15;1.70;;;;;;;5.67;100.00;99401.56;10188249;28;20104;-66
2022/04/08 20:39:35;;;;;;;16.75;2.55;;;;;;;5.77;100.00;99407.81;10185655;28;20558;-66
2022/04/08 20:44:37;;;;;;;7.22;1.40;;;;;;;5.69;100.00;99410.19;10185159;28;20046;-66
2022/04/08 20:49:34;;;;;;;11.05;1.40;;;;;;;5.41;100.00;99403.44;10179511;28;20454;-66
2022/04/08 20:54:31;;;;;;;13.60;1.63;;;;;;;5.28;100.00;99400.53;10186775;28;20153;-67
2022/04/08 20:59:28;;;;;;;7.25;1.50;;;;;;;5.11;100.00;99395.06;10164529;28;20149;-67
2022/04/08 21:04:26;;;;;;;11.90;1.98;;;;;;;5.00;100.00;99399.16;10172105;28;20038;-66
2022/04/08 21:09:22;;;;;;;9.40;1.60;;;;;;;5.08;100.00;99406.50;10177299;28;20045;-66
2022/04/08 21:14:19;;;;;;;11.63;2.10;;;;;;;5.07;100.00;99410.34;10169066;28;20152;-66
2022/04/08 21:19:16;;;;;;;12.48;1.50;;;;;;;5.24;100.00;99405.00;10182510;28;20150;-65
2022/04/08 21:24:13;;;;;;;9.60;1.38;;;;;;;5.11;100.00;99403.19;10183696;28;20112;-66
2022/04/08 21:29:09;;;;;;;12.15;2.05;;;;;;;5.19;100.00;99407.84;10180995;28;20128;-67
2022/04/08 21:34:06;;;;;;;8.32;1.67;;;;;;;5.22;100.00;99404.50;10188234;28;20053;-66
2022/04/08 21:39:03;;;;;;;9.05;2.08;;;;;;;5.06;100.00;99423.09;10175682;28;20042;-66
2022/04/08 21:44:00;;;;;;;7.13;1.48;;;;;;;5.01;100.00;99433.25;10187284;28;20046;-66
2022/04/08 21:48:56;;;;;;;9.50;1.83;;;;;;;4.86;100.00;99448.00;10179612;28;20046;-66
2022/04/08 21:53:53;;;;;;;11.38;1.30;;;;;;;5.03;100.00;99452.72;10184148;28;20069;-66
2022/04/08 21:58:49;;;;;;;6.75;1.40;;;;;;;4.88;100.00;99456.63;10171594;28;20077;-66
2022/04/08 22:03:46;;;;;;;10.70;1.38;;;;;;;4.85;100.00;99457.25;10179267;28;20069;-66
2022/04/08 22:08:42;;;;;;;12.05;1.33;;;;;;;4.84;100.00;99464.56;10185281;28;20127;-67
2022/04/08 22:13:39;;;;;;;7.93;1.80;;;;;;;4.77;100.00;99460.72;10178050;28;20104;-66
2022/04/08 22:18:35;;;;;;;4.30;0.82;;;;;;;4.55;100.00;99464.22;10185107;28;20194;-66
2022/04/08 22:23:32;;;;;;;4.65;0.93;;;;;;;4.48;100.00;99477.38;10163472;28;20132;-66
2022/04/08 22:28:32;;;;;;;9.65;1.13;;;;;;;4.39;100.00;99488.94;10184913;28;20160;-66
2022/04/08 22:33:28;;;;;;;8.40;1.50;;;;;;;4.33;100.00;99489.38;10155498;28;20140;-66
2022/04/08 22:38:24;;;;;;;8.02;1.42;;;;;;;4.17;100.00;99507.84;10175650;28;20551;-66
2022/04/08 22:43:21;;;;;;;7.55;1.00;;;;;;;4.27;100.00;99496.81;10185095;28;20069;-67
2022/04/08 22:48:17;;;;;;;9.10;1.52;;;;;;;4.27;100.00;99512.22;10183535;28;20085;-66
2022/04/08 22:53:14;;;;;;;6.13;1.10;;;;;;;4.17;100.00;99513.28;10184298;28;20038;-66
2022/04/08 23:03:25;;;;;;;7.93;1.15;;;;;;;4.05;100.00;99529.22;10213223;28;20045;-66